sensor_id;sensor_type;location;lat;lon;timestamp;temperature;humidity
2174;DHT22;1093;51.424;11.764;2023-07-29T00:00:55;20.80;1.40
2174;DHT22;1093;51.424;11.764;2023-07-29T00:03:22;20.80;1.40
2174;DHT22;1093;51.424;11.764;2023-07-29T00:05:50;20.80;1.40
2174;DHT22;1093;51.424;11.764;2023-07-29T00:08:19;20.70;1.40
2174;DHT22;1093;51.424;11.764;2023-07-29T00:10:49;20.80;1.40
2174;DHT22;1093;51.424;11.764;2023-07-29T00:13:18;20.70;1.40
2174;DHT22;1093;51.424;11.764;2023-07-29T00:15:55;20.80;1.40
2174;DHT22;1093;51.424;11.764;2023-07-29T00:18:25;20.70;1.40
2174;DHT22;1093;51.424;11.764;2023-07-29T00:20:54;20.70;1.40
2174;DHT22;1093;51.424;11.764;2023-07-29T00:23:21;20.70;1.40
2174;DHT22;1093;51.424;11.764;2023-07-29T00:25:51;20.80;1.40
2174;DHT22;1093;51.424;11.764;2023-07-29T00:28:20;20.70;1.40
2174;DHT22;1093;51.424;11.764;2023-07-29T00:30:47;20.70;1.40
2174;DHT22;1093;51.424;11.764;2023-07-29T00:33:17;20.70;1.40
2174;DHT22;1093;51.424;11.764;2023-07-29T00:35:45;20.70;1.40
2174;DHT22;1093;51.424;11.764;2023-07-29T00:38:13;20.70;1.40
2174;DHT22;1093;51.424;11.764;2023-07-29T00:40:41;20.70;1.40
2174;DHT22;1093;51.424;11.764;2023-07-29T00:43:10;20.70;1.40
2174;DHT22;1093;51.424;11.764;2023-07-29T00:45:43;20.70;1.40
2174;DHT22;1093;51.424;11.764;2023-07-29T00:48:18;20.60;1.40
2174;DHT22;1093;51.424;11.764;2023-07-29T00:50:46;20.60;1.40
2174;DHT22;1093;51.424;11.764;2023-07-29T00:53:15;20.60;1.40
2174;DHT22;1093;51.424;11.764;2023-07-29T00:55:43;20.60;1.40
2174;DHT22;1093;51.424;11.764;2023-07-29T00:58:12;20.60;1.40
2174;DHT22;1093;51.424;11.764;2023-07-29T01:00:41;20.50;1.40
2174;DHT22;1093;51.424;11.764;2023-07-29T01:03:10;20.50;1.40
2174;DHT22;1093;51.424;11.764;2023-07-29T01:05:53;20.50;1.40
2174;DHT22;1093;51.424;11.764;2023-07-29T01:08:31;20.50;1.40
2174;DHT22;1093;51.424;11.764;2023-07-29T01:11:11;20.50;1.40
2174;DHT22;1093;51.424;11.764;2023-07-29T01:13:50;20.40;1.40
2174;DHT22;1093;51.424;11.764;2023-07-29T01:16:23;20.40;1.40
2174;DHT22;1093;51.424;11.764;2023-07-29T01:19:05;20.40;1.40
2174;DHT22;1093;51.424;11.764;2023-07-29T01:21:35;20.40;1.40
2174;DHT22;1093;51.424;11.764;2023-07-29T01:24:05;20.40;1.40
2174;DHT22;1093;51.424;11.764;2023-07-29T01:26:33;20.30;1.40
2174;DHT22;1093;51.424;11.764;2023-07-29T01:29:00;20.30;1.40
2174;DHT22;1093;51.424;11.764;2023-07-29T01:31:41;20.30;1.40
2174;DHT22;1093;51.424;11.764;2023-07-29T01:34:13;20.30;1.40
2174;DHT22;1093;51.424;11.764;2023-07-29T01:36:45;20.30;1.40
2174;DHT22;1093;51.424;11.764;2023-07-29T01:39:16;20.30;1.40
2174;DHT22;1093;51.424;11.764;2023-07-29T01:41:44;20.30;1.40
2174;DHT22;1093;51.424;11.764;2023-07-29T01:44:12;20.30;1.40
2174;DHT22;1093;51.424;11.764;2023-07-29T01:46:43;20.20;1.40
2174;DHT22;1093;51.424;11.764;2023-07-29T01:49:11;20.30;1.40
2174;DHT22;1093;51.424;11.764;2023-07-29T01:51:39;20.30;1.40
2174;DHT22;1093;51.424;11.764;2023-07-29T01:54:08;20.20;1.40
2174;DHT22;1093;51.424;11.764;2023-07-29T01:56:37;20.30;1.40
2174;DHT22;1093;51.424;11.764;2023-07-29T01:59:04;20.20;1.40
2174;DHT22;1093;51.424;11.764;2023-07-29T02:01:31;20.20;1.40
2174;DHT22;1093;51.424;11.764;2023-07-29T02:04:00;20.20;1.40
2174;DHT22;1093;51.424;11.764;2023-07-29T02:06:27;20.20;1.40
2174;DHT22;1093;51.424;11.764;2023-07-29T02:08:55;20.10;1.40
2174;DHT22;1093;51.424;11.764;2023-07-29T02:11:27;20.10;1.40
2174;DHT22;1093;51.424;11.764;2023-07-29T02:13:55;20.10;1.40
2174;DHT22;1093;51.424;11.764;2023-07-29T02:16:24;20.00;1.40
2174;DHT22;1093;51.424;11.764;2023-07-29T02:18:51;20.00;1.40
2174;DHT22;1093;51.424;11.764;2023-07-29T02:21:23;20.00;1.40
2174;DHT22;1093;51.424;11.764;2023-07-29T02:23:52;19.90;1.40
2174;DHT22;1093;51.424;11.764;2023-07-29T02:26:19;19.90;1.40
2174;DHT22;1093;51.424;11.764;2023-07-29T02:28:50;19.90;1.40
2174;DHT22;1093;51.424;11.764;2023-07-29T02:31:26;19.90;1.40
2174;DHT22;1093;51.424;11.764;2023-07-29T02:33:53;19.80;1.40
2174;DHT22;1093;51.424;11.764;2023-07-29T02:36:24;19.80;1.40
2174;DHT22;1093;51.424;11.764;2023-07-29T02:38:51;19.80;1.40
2174;DHT22;1093;51.424;11.764;2023-07-29T02:41:18;19.80;1.40
2174;DHT22;1093;51.424;11.764;2023-07-29T02:43:48;19.70;1.40
2174;DHT22;1093;51.424;11.764;2023-07-29T02:46:18;19.70;1.40
2174;DHT22;1093;51.424;11.764;2023-07-29T02:48:47;19.70;1.40
2174;DHT22;1093;51.424;11.764;2023-07-29T02:51:15;19.60;1.40
2174;DHT22;1093;51.424;11.764;2023-07-29T02:53:42;19.60;1.40
2174;DHT22;1093;51.424;11.764;2023-07-29T02:56:09;19.60;1.40
2174;DHT22;1093;51.424;11.764;2023-07-29T02:58:39;19.50;1.40
2174;DHT22;1093;51.424;11.764;2023-07-29T03:01:07;19.50;1.40
2174;DHT22;1093;51.424;11.764;2023-07-29T03:03:39;19.50;1.40
2174;DHT22;1093;51.424;11.764;2023-07-29T03:06:10;19.40;1.40
2174;DHT22;1093;51.424;11.764;2023-07-29T03:08:44;19.40;1.40
2174;DHT22;1093;51.424;11.764;2023-07-29T03:11:14;19.40;1.40
2174;DHT22;1093;51.424;11.764;2023-07-29T03:13:42;19.30;1.40
2174;DHT22;1093;51.424;11.764;2023-07-29T03:16:12;19.30;1.40
2174;DHT22;1093;51.424;11.764;2023-07-29T03:18:39;19.30;1.40
2174;DHT22;1093;51.424;11.764;2023-07-29T03:21:10;19.30;1.40
2174;DHT22;1093;51.424;11.764;2023-07-29T03:23:46;19.20;1.40
2174;DHT22;1093;51.424;11.764;2023-07-29T03:26:13;19.20;1.40
2174;DHT22;1093;51.424;11.764;2023-07-29T03:28:41;19.30;1.40
2174;DHT22;1093;51.424;11.764;2023-07-29T03:31:08;19.20;1.40
2174;DHT22;1093;51.424;11.764;2023-07-29T03:33:39;19.10;1.40
2174;DHT22;1093;51.424;11.764;2023-07-29T03:36:09;19.10;1.40
2174;DHT22;1093;51.424;11.764;2023-07-29T03:38:37;19.00;1.40
2174;DHT22;1093;51.424;11.764;2023-07-29T03:41:06;19.00;1.40
2174;DHT22;1093;51.424;11.764;2023-07-29T03:43:34;19.00;1.40
2174;DHT22;1093;51.424;11.764;2023-07-29T03:46:00;19.00;1.40
2174;DHT22;1093;51.424;11.764;2023-07-29T03:48:28;19.00;1.40
2174;DHT22;1093;51.424;11.764;2023-07-29T03:50:54;19.00;1.40
2174;DHT22;1093;51.424;11.764;2023-07-29T03:53:23;19.00;1.40
2174;DHT22;1093;51.424;11.764;2023-07-29T03:55:53;18.90;1.40
2174;DHT22;1093;51.424;11.764;2023-07-29T03:58:21;18.90;1.40
2174;DHT22;1093;51.424;11.764;2023-07-29T04:00:51;18.90;1.40
2174;DHT22;1093;51.424;11.764;2023-07-29T04:03:20;18.90;1.40
2174;DHT22;1093;51.424;11.764;2023-07-29T04:05:47;18.90;1.40
2174;DHT22;1093;51.424;11.764;2023-07-29T04:08:16;18.90;1.40
2174;DHT22;1093;51.424;11.764;2023-07-29T04:10:45;18.80;1.40
2174;DHT22;1093;51.424;11.764;2023-07-29T04:13:12;18.90;1.40
2174;DHT22;1093;51.424;11.764;2023-07-29T04:15:39;18.90;1.40
2174;DHT22;1093;51.424;11.764;2023-07-29T04:18:07;18.90;1.40
2174;DHT22;1093;51.424;11.764;2023-07-29T04:20:36;18.90;1.40
2174;DHT22;1093;51.424;11.764;2023-07-29T04:23:03;18.90;1.40
2174;DHT22;1093;51.424;11.764;2023-07-29T04:25:32;18.90;1.40
2174;DHT22;1093;51.424;11.764;2023-07-29T04:28:00;18.90;1.40
2174;DHT22;1093;51.424;11.764;2023-07-29T04:30:33;18.90;1.40
2174;DHT22;1093;51.424;11.764;2023-07-29T04:33:01;19.00;1.40
2174;DHT22;1093;51.424;11.764;2023-07-29T04:35:28;18.90;1.40
2174;DHT22;1093;51.424;11.764;2023-07-29T04:37:55;18.90;1.40
2174;DHT22;1093;51.424;11.764;2023-07-29T04:40:22;19.00;1.40
2174;DHT22;1093;51.424;11.764;2023-07-29T04:42:54;19.00;1.40
2174;DHT22;1093;51.424;11.764;2023-07-29T04:45:28;19.00;1.40
2174;DHT22;1093;51.424;11.764;2023-07-29T04:47:58;19.00;1.40
2174;DHT22;1093;51.424;11.764;2023-07-29T04:50:25;19.00;1.40
2174;DHT22;1093;51.424;11.764;2023-07-29T04:52:53;19.10;1.40
2174;DHT22;1093;51.424;11.764;2023-07-29T04:55:21;19.10;1.40
2174;DHT22;1093;51.424;11.764;2023-07-29T04:57:48;19.20;1.40
2174;DHT22;1093;51.424;11.764;2023-07-29T05:00:16;19.20;1.40
2174;DHT22;1093;51.424;11.764;2023-07-29T05:02:45;19.30;1.40
2174;DHT22;1093;51.424;11.764;2023-07-29T05:05:12;19.30;1.40
2174;DHT22;1093;51.424;11.764;2023-07-29T05:07:44;19.40;1.40
2174;DHT22;1093;51.424;11.764;2023-07-29T05:10:12;19.40;1.40
2174;DHT22;1093;51.424;11.764;2023-07-29T05:12:39;19.50;1.40
2174;DHT22;1093;51.424;11.764;2023-07-29T05:15:09;19.60;1.40
2174;DHT22;1093;51.424;11.764;2023-07-29T05:17:37;19.70;1.40
2174;DHT22;1093;51.424;11.764;2023-07-29T05:20:09;19.80;1.40
2174;DHT22;1093;51.424;11.764;2023-07-29T05:22:38;19.90;1.40
2174;DHT22;1093;51.424;11.764;2023-07-29T05:25:07;20.10;1.40
2174;DHT22;1093;51.424;11.764;2023-07-29T05:27:36;20.20;1.40
2174;DHT22;1093;51.424;11.764;2023-07-29T05:30:04;20.40;1.40
2174;DHT22;1093;51.424;11.764;2023-07-29T05:32:32;20.60;1.40
2174;DHT22;1093;51.424;11.764;2023-07-29T05:35:00;20.70;1.40
2174;DHT22;1093;51.424;11.764;2023-07-29T05:37:31;20.90;1.40
2174;DHT22;1093;51.424;11.764;2023-07-29T05:39:58;21.00;1.40
2174;DHT22;1093;51.424;11.764;2023-07-29T05:42:26;21.20;1.40
2174;DHT22;1093;51.424;11.764;2023-07-29T05:44:53;21.40;1.40
2174;DHT22;1093;51.424;11.764;2023-07-29T05:47:20;21.60;1.40
2174;DHT22;1093;51.424;11.764;2023-07-29T05:49:47;21.70;1.40
2174;DHT22;1093;51.424;11.764;2023-07-29T05:52:17;21.80;1.40
2174;DHT22;1093;51.424;11.764;2023-07-29T05:54:46;21.90;1.40
2174;DHT22;1093;51.424;11.764;2023-07-29T05:57:15;22.00;1.40
2174;DHT22;1093;51.424;11.764;2023-07-29T05:59:46;22.10;1.40
2174;DHT22;1093;51.424;11.764;2023-07-29T06:02:16;22.20;1.40
2174;DHT22;1093;51.424;11.764;2023-07-29T06:04:45;22.20;1.40
2174;DHT22;1093;51.424;11.764;2023-07-29T06:07:12;22.20;1.40
2174;DHT22;1093;51.424;11.764;2023-07-29T06:09:40;22.20;1.40
2174;DHT22;1093;51.424;11.764;2023-07-29T06:12:12;22.40;1.40
2174;DHT22;1093;51.424;11.764;2023-07-29T06:14:42;22.50;1.40
2174;DHT22;1093;51.424;11.764;2023-07-29T06:17:10;22.60;1.40
2174;DHT22;1093;51.424;11.764;2023-07-29T06:19:37;22.70;1.40
2174;DHT22;1093;51.424;11.764;2023-07-29T06:22:05;22.60;1.40
2174;DHT22;1093;51.424;11.764;2023-07-29T06:24:37;22.70;1.40
2174;DHT22;1093;51.424;11.764;2023-07-29T06:27:06;22.70;1.40
2174;DHT22;1093;51.424;11.764;2023-07-29T06:29:37;22.80;1.40
2174;DHT22;1093;51.424;11.764;2023-07-29T06:32:05;22.80;1.40
2174;DHT22;1093;51.424;11.764;2023-07-29T06:34:32;22.90;1.40
2174;DHT22;1093;51.424;11.764;2023-07-29T06:37:00;22.90;1.40
2174;DHT22;1093;51.424;11.764;2023-07-29T06:39:42;22.90;1.40
2174;DHT22;1093;51.424;11.764;2023-07-29T06:42:18;22.90;1.40
2174;DHT22;1093;51.424;11.764;2023-07-29T06:44:47;22.90;1.40
2174;DHT22;1093;51.424;11.764;2023-07-29T06:47:15;22.90;1.40
2174;DHT22;1093;51.424;11.764;2023-07-29T06:49:43;23.00;1.40
2174;DHT22;1093;51.424;11.764;2023-07-29T06:52:10;22.90;1.40
2174;DHT22;1093;51.424;11.764;2023-07-29T06:54:38;23.00;1.40
2174;DHT22;1093;51.424;11.764;2023-07-29T06:57:06;22.90;1.40
2174;DHT22;1093;51.424;11.764;2023-07-29T06:59:35;23.00;1.40
2174;DHT22;1093;51.424;11.764;2023-07-29T07:02:06;23.00;1.40
2174;DHT22;1093;51.424;11.764;2023-07-29T07:04:33;23.00;1.40
2174;DHT22;1093;51.424;11.764;2023-07-29T07:07:02;23.00;1.40
2174;DHT22;1093;51.424;11.764;2023-07-29T07:09:29;23.00;1.40
2174;DHT22;1093;51.424;11.764;2023-07-29T07:11:56;22.90;1.40
2174;DHT22;1093;51.424;11.764;2023-07-29T07:14:24;22.90;1.40
2174;DHT22;1093;51.424;11.764;2023-07-29T07:16:52;22.90;1.40
2174;DHT22;1093;51.424;11.764;2023-07-29T07:19:28;22.90;1.40
2174;DHT22;1093;51.424;11.764;2023-07-29T07:21:55;22.90;1.40
2174;DHT22;1093;51.424;11.764;2023-07-29T07:24:23;22.90;1.40
2174;DHT22;1093;51.424;11.764;2023-07-29T07:26:50;23.00;1.40
2174;DHT22;1093;51.424;11.764;2023-07-29T07:29:17;22.90;1.40
2174;DHT22;1093;51.424;11.764;2023-07-29T07:31:50;23.00;1.40
2174;DHT22;1093;51.424;11.764;2023-07-29T07:34:18;23.10;1.40
2174;DHT22;1093;51.424;11.764;2023-07-29T07:36:54;23.20;1.40
2174;DHT22;1093;51.424;11.764;2023-07-29T07:39:22;23.40;1.40
2174;DHT22;1093;51.424;11.764;2023-07-29T07:41:50;23.50;1.40
2174;DHT22;1093;51.424;11.764;2023-07-29T07:44:17;23.60;1.40
2174;DHT22;1093;51.424;11.764;2023-07-29T07:46:48;23.70;1.40
2174;DHT22;1093;51.424;11.764;2023-07-29T07:49:16;23.80;1.40
2174;DHT22;1093;51.424;11.764;2023-07-29T07:51:48;23.80;1.40
2174;DHT22;1093;51.424;11.764;2023-07-29T07:54:20;23.80;1.40
2174;DHT22;1093;51.424;11.764;2023-07-29T07:56:47;23.80;1.40
2174;DHT22;1093;51.424;11.764;2023-07-29T07:59:14;23.90;1.40
2174;DHT22;1093;51.424;11.764;2023-07-29T08:01:45;24.00;1.40
2174;DHT22;1093;51.424;11.764;2023-07-29T08:04:17;24.00;1.40
2174;DHT22;1093;51.424;11.764;2023-07-29T08:06:43;24.10;1.40
2174;DHT22;1093;51.424;11.764;2023-07-29T08:09:12;24.30;1.40
2174;DHT22;1093;51.424;11.764;2023-07-29T08:11:41;24.40;1.40
2174;DHT22;1093;51.424;11.764;2023-07-29T08:14:12;24.40;1.40
2174;DHT22;1093;51.424;11.764;2023-07-29T08:16:41;24.50;1.40
2174;DHT22;1093;51.424;11.764;2023-07-29T08:19:08;24.60;1.40
2174;DHT22;1093;51.424;11.764;2023-07-29T08:21:35;24.60;1.40
2174;DHT22;1093;51.424;11.764;2023-07-29T08:24:04;24.60;1.40
2174;DHT22;1093;51.424;11.764;2023-07-29T08:26:33;24.70;1.40
2174;DHT22;1093;51.424;11.764;2023-07-29T08:29:00;24.70;1.40
2174;DHT22;1093;51.424;11.764;2023-07-29T08:31:28;24.80;1.40
2174;DHT22;1093;51.424;11.764;2023-07-29T08:33:59;24.90;1.40
2174;DHT22;1093;51.424;11.764;2023-07-29T08:36:27;25.00;1.40
2174;DHT22;1093;51.424;11.764;2023-07-29T08:39:00;25.10;1.40
2174;DHT22;1093;51.424;11.764;2023-07-29T08:41:31;25.20;1.40
2174;DHT22;1093;51.424;11.764;2023-07-29T08:44:06;25.30;1.40
2174;DHT22;1093;51.424;11.764;2023-07-29T08:46:38;25.30;1.40
2174;DHT22;1093;51.424;11.764;2023-07-29T08:49:07;25.40;1.40
2174;DHT22;1093;51.424;11.764;2023-07-29T08:51:34;25.40;1.40
2174;DHT22;1093;51.424;11.764;2023-07-29T08:54:03;25.40;1.40
2174;DHT22;1093;51.424;11.764;2023-07-29T08:56:30;25.50;1.40
2174;DHT22;1093;51.424;11.764;2023-07-29T08:59:02;25.50;1.40
2174;DHT22;1093;51.424;11.764;2023-07-29T09:01:32;25.60;1.40
2174;DHT22;1093;51.424;11.764;2023-07-29T09:03:59;25.60;1.40
2174;DHT22;1093;51.424;11.764;2023-07-29T09:06:30;25.70;1.40
2174;DHT22;1093;51.424;11.764;2023-07-29T09:08:58;25.80;1.40
2174;DHT22;1093;51.424;11.764;2023-07-29T09:11:26;25.90;1.40
2174;DHT22;1093;51.424;11.764;2023-07-29T09:14:03;25.90;1.40
2174;DHT22;1093;51.424;11.764;2023-07-29T09:16:32;25.90;1.40
2174;DHT22;1093;51.424;11.764;2023-07-29T09:19:01;25.90;1.40
2174;DHT22;1093;51.424;11.764;2023-07-29T09:21:29;26.00;1.40
2174;DHT22;1093;51.424;11.764;2023-07-29T09:23:56;26.00;1.40
2174;DHT22;1093;51.424;11.764;2023-07-29T09:26:25;26.10;1.40
2174;DHT22;1093;51.424;11.764;2023-07-29T09:28:56;26.10;1.40
2174;DHT22;1093;51.424;11.764;2023-07-29T09:31:29;26.10;1.40
2174;DHT22;1093;51.424;11.764;2023-07-29T09:33:58;26.20;1.40
2174;DHT22;1093;51.424;11.764;2023-07-29T09:36:27;26.20;1.40
2174;DHT22;1093;51.424;11.764;2023-07-29T09:38:57;26.30;1.40
2174;DHT22;1093;51.424;11.764;2023-07-29T09:41:27;26.20;1.40
2174;DHT22;1093;51.424;11.764;2023-07-29T09:44:01;26.20;1.40
2174;DHT22;1093;51.424;11.764;2023-07-29T09:46:34;26.20;1.40
2174;DHT22;1093;51.424;11.764;2023-07-29T09:49:05;26.20;1.40
2174;DHT22;1093;51.424;11.764;2023-07-29T09:51:51;26.30;1.40
2174;DHT22;1093;51.424;11.764;2023-07-29T09:54:21;26.20;1.40
2174;DHT22;1093;51.424;11.764;2023-07-29T09:56:49;26.20;1.40
2174;DHT22;1093;51.424;11.764;2023-07-29T09:59:19;26.20;1.40
2174;DHT22;1093;51.424;11.764;2023-07-29T10:01:50;26.30;1.40
2174;DHT22;1093;51.424;11.764;2023-07-29T10:04:19;26.30;1.40
2174;DHT22;1093;51.424;11.764;2023-07-29T10:06:49;26.20;1.40
2174;DHT22;1093;51.424;11.764;2023-07-29T10:09:17;26.20;1.40
2174;DHT22;1093;51.424;11.764;2023-07-29T10:11:52;26.20;1.40
2174;DHT22;1093;51.424;11.764;2023-07-29T10:14:22;26.20;1.40
2174;DHT22;1093;51.424;11.764;2023-07-29T10:17:08;26.20;1.40
2174;DHT22;1093;51.424;11.764;2023-07-29T10:19:40;26.30;1.40
2174;DHT22;1093;51.424;11.764;2023-07-29T10:22:12;26.40;1.40
2174;DHT22;1093;51.424;11.764;2023-07-29T10:24:41;26.50;1.40
2174;DHT22;1093;51.424;11.764;2023-07-29T10:27:11;26.50;1.40
2174;DHT22;1093;51.424;11.764;2023-07-29T10:29:42;26.50;1.40
2174;DHT22;1093;51.424;11.764;2023-07-29T10:32:12;26.50;1.40
2174;DHT22;1093;51.424;11.764;2023-07-29T10:34:39;26.70;1.40
2174;DHT22;1093;51.424;11.764;2023-07-29T10:37:07;26.80;1.40
2174;DHT22;1093;51.424;11.764;2023-07-29T10:39:39;27.00;1.40
2174;DHT22;1093;51.424;11.764;2023-07-29T10:42:13;27.10;1.40
2174;DHT22;1093;51.424;11.764;2023-07-29T10:44:48;27.10;1.40
2174;DHT22;1093;51.424;11.764;2023-07-29T10:47:20;27.10;1.40
2174;DHT22;1093;51.424;11.764;2023-07-29T10:49:55;27.00;1.40
2174;DHT22;1093;51.424;11.764;2023-07-29T10:52:39;26.90;1.40
2174;DHT22;1093;51.424;11.764;2023-07-29T10:55:27;27.00;1.40
2174;DHT22;1093;51.424;11.764;2023-07-29T10:58:06;27.00;1.40
2174;DHT22;1093;51.424;11.764;2023-07-29T11:00:41;27.00;1.40
2174;DHT22;1093;51.424;11.764;2023-07-29T11:03:12;26.90;1.40
2174;DHT22;1093;51.424;11.764;2023-07-29T11:05:47;26.90;1.40
2174;DHT22;1093;51.424;11.764;2023-07-29T11:08:26;27.00;1.40
2174;DHT22;1093;51.424;11.764;2023-07-29T11:11:14;26.90;1.40
2174;DHT22;1093;51.424;11.764;2023-07-29T11:13:45;27.00;1.40
2174;DHT22;1093;51.424;11.764;2023-07-29T11:19:02;26.80;1.40
2174;DHT22;1093;51.424;11.764;2023-07-29T11:21:30;26.70;1.40
2174;DHT22;1093;51.424;11.764;2023-07-29T11:23:58;26.80;1.40
2174;DHT22;1093;51.424;11.764;2023-07-29T11:26:25;26.80;1.40
2174;DHT22;1093;51.424;11.764;2023-07-29T11:28:52;26.80;1.40
2174;DHT22;1093;51.424;11.764;2023-07-29T11:31:19;26.80;1.40
2174;DHT22;1093;51.424;11.764;2023-07-29T11:33:56;26.70;1.40
2174;DHT22;1093;51.424;11.764;2023-07-29T11:36:26;26.60;1.40
2174;DHT22;1093;51.424;11.764;2023-07-29T11:39:12;26.60;1.40
2174;DHT22;1093;51.424;11.764;2023-07-29T11:41:48;26.60;1.40
2174;DHT22;1093;51.424;11.764;2023-07-29T11:44:18;26.50;1.40
2174;DHT22;1093;51.424;11.764;2023-07-29T11:46:45;26.50;1.40
2174;DHT22;1093;51.424;11.764;2023-07-29T11:49:21;26.50;1.40
2174;DHT22;1093;51.424;11.764;2023-07-29T11:51:53;26.40;1.40
2174;DHT22;1093;51.424;11.764;2023-07-29T11:54:21;26.40;1.40
2174;DHT22;1093;51.424;11.764;2023-07-29T11:56:51;26.40;1.40
2174;DHT22;1093;51.424;11.764;2023-07-29T11:59:27;26.40;1.40
2174;DHT22;1093;51.424;11.764;2023-07-29T12:01:57;26.40;1.40
2174;DHT22;1093;51.424;11.764;2023-07-29T12:04:28;26.50;1.40
2174;DHT22;1093;51.424;11.764;2023-07-29T12:07:00;26.60;1.40
2174;DHT22;1093;51.424;11.764;2023-07-29T12:09:28;26.70;1.40
2174;DHT22;1093;51.424;11.764;2023-07-29T12:11:57;26.70;1.40
2174;DHT22;1093;51.424;11.764;2023-07-29T12:14:27;26.80;1.40
2174;DHT22;1093;51.424;11.764;2023-07-29T12:17:00;26.80;1.40
2174;DHT22;1093;51.424;11.764;2023-07-29T12:19:33;27.00;1.40
2174;DHT22;1093;51.424;11.764;2023-07-29T12:22:06;27.10;1.40
2174;DHT22;1093;51.424;11.764;2023-07-29T12:24:41;27.20;1.40
2174;DHT22;1093;51.424;11.764;2023-07-29T12:30:30;27.40;1.40
2174;DHT22;1093;51.424;11.764;2023-07-29T12:32:57;27.50;1.40
2174;DHT22;1093;51.424;11.764;2023-07-29T12:35:45;27.50;1.40
2174;DHT22;1093;51.424;11.764;2023-07-29T12:38:21;27.70;1.40
2174;DHT22;1093;51.424;11.764;2023-07-29T12:40:54;27.90;1.40
2174;DHT22;1093;51.424;11.764;2023-07-29T12:43:34;28.00;1.40
2174;DHT22;1093;51.424;11.764;2023-07-29T12:46:02;28.10;1.40
2174;DHT22;1093;51.424;11.764;2023-07-29T12:48:44;28.30;1.40
2174;DHT22;1093;51.424;11.764;2023-07-29T12:51:41;28.40;1.40
2174;DHT22;1093;51.424;11.764;2023-07-29T12:54:17;28.60;1.40
2174;DHT22;1093;51.424;11.764;2023-07-29T12:56:44;28.70;1.40
2174;DHT22;1093;51.424;11.764;2023-07-29T12:59:14;28.70;1.40
2174;DHT22;1093;51.424;11.764;2023-07-29T13:01:49;28.80;1.40
2174;DHT22;1093;51.424;11.764;2023-07-29T13:04:16;28.80;1.40
2174;DHT22;1093;51.424;11.764;2023-07-29T13:06:45;28.90;1.40
2174;DHT22;1093;51.424;11.764;2023-07-29T13:09:13;29.00;1.40
2174;DHT22;1093;51.424;11.764;2023-07-29T13:11:46;29.20;1.40
2174;DHT22;1093;51.424;11.764;2023-07-29T13:14:13;29.30;1.40
2174;DHT22;1093;51.424;11.764;2023-07-29T13:16:43;29.50;1.40
2174;DHT22;1093;51.424;11.764;2023-07-29T13:19:12;29.60;1.40
2174;DHT22;1093;51.424;11.764;2023-07-29T13:21:45;29.70;1.40
2174;DHT22;1093;51.424;11.764;2023-07-29T13:34:35;29.80;1.40
2174;DHT22;1093;51.424;11.764;2023-07-29T13:37:05;30.00;1.40
2174;DHT22;1093;51.424;11.764;2023-07-29T13:39:32;29.90;1.40
2174;DHT22;1093;51.424;11.764;2023-07-29T13:41:59;29.90;1.40
2174;DHT22;1093;51.424;11.764;2023-07-29T13:44:26;30.00;1.40
2174;DHT22;1093;51.424;11.764;2023-07-29T13:46:53;30.00;1.40
2174;DHT22;1093;51.424;11.764;2023-07-29T13:49:20;30.00;1.40
2174;DHT22;1093;51.424;11.764;2023-07-29T13:51:48;30.00;1.40
2174;DHT22;1093;51.424;11.764;2023-07-29T13:54:17;29.90;1.40
2174;DHT22;1093;51.424;11.764;2023-07-29T13:56:43;29.80;1.40
2174;DHT22;1093;51.424;11.764;2023-07-29T13:59:10;29.60;1.40
2174;DHT22;1093;51.424;11.764;2023-07-29T14:01:39;29.60;1.40
2174;DHT22;1093;51.424;11.764;2023-07-29T14:04:06;29.50;1.40
2174;DHT22;1093;51.424;11.764;2023-07-29T14:06:33;29.40;1.40
2174;DHT22;1093;51.424;11.764;2023-07-29T14:09:02;29.30;1.40
2174;DHT22;1093;51.424;11.764;2023-07-29T14:11:28;29.20;1.40
2174;DHT22;1093;51.424;11.764;2023-07-29T14:13:55;29.10;1.40
2174;DHT22;1093;51.424;11.764;2023-07-29T14:16:22;29.00;1.40
2174;DHT22;1093;51.424;11.764;2023-07-29T14:18:49;28.80;1.40
2174;DHT22;1093;51.424;11.764;2023-07-29T14:21:16;28.60;1.40
2174;DHT22;1093;51.424;11.764;2023-07-29T14:23:43;28.20;1.40
2174;DHT22;1093;51.424;11.764;2023-07-29T14:26:11;27.70;1.40
2174;DHT22;1093;51.424;11.764;2023-07-29T14:28:38;27.30;1.40
2174;DHT22;1093;51.424;11.764;2023-07-29T14:31:05;26.90;1.40
2174;DHT22;1093;51.424;11.764;2023-07-29T14:33:33;26.60;1.40
2174;DHT22;1093;51.424;11.764;2023-07-29T14:35:59;26.10;1.40
2174;DHT22;1093;51.424;11.764;2023-07-29T14:38:26;26.00;1.40
2174;DHT22;1093;51.424;11.764;2023-07-29T14:40:53;25.60;1.40
2174;DHT22;1093;51.424;11.764;2023-07-29T14:43:23;25.20;1.40
2174;DHT22;1093;51.424;11.764;2023-07-29T14:45:50;24.90;1.40
2174;DHT22;1093;51.424;11.764;2023-07-29T14:48:17;24.60;1.40
2174;DHT22;1093;51.424;11.764;2023-07-29T14:53:21;24.20;1.40
2174;DHT22;1093;51.424;11.764;2023-07-29T14:56:15;24.00;1.40
2174;DHT22;1093;51.424;11.764;2023-07-29T14:58:58;23.80;1.40
2174;DHT22;1093;51.424;11.764;2023-07-29T15:01:28;23.70;1.40
2174;DHT22;1093;51.424;11.764;2023-07-29T15:04:04;23.60;1.40
2174;DHT22;1093;51.424;11.764;2023-07-29T15:06:46;23.50;1.40
2174;DHT22;1093;51.424;11.764;2023-07-29T15:09:23;23.50;1.40
2174;DHT22;1093;51.424;11.764;2023-07-29T15:15:28;23.40;1.40
2174;DHT22;1093;51.424;11.764;2023-07-29T15:17:55;23.40;1.40
2174;DHT22;1093;51.424;11.764;2023-07-29T15:20:22;23.50;1.40
2174;DHT22;1093;51.424;11.764;2023-07-29T15:22:49;23.50;1.40
2174;DHT22;1093;51.424;11.764;2023-07-29T15:25:18;23.50;1.40
2174;DHT22;1093;51.424;11.764;2023-07-29T15:28:06;23.50;1.40
2174;DHT22;1093;51.424;11.764;2023-07-29T15:48:24;23.80;1.40
2174;DHT22;1093;51.424;11.764;2023-07-29T15:50:51;23.80;1.40
2174;DHT22;1093;51.424;11.764;2023-07-29T16:03:55;23.90;1.40
2174;DHT22;1093;51.424;11.764;2023-07-29T16:06:24;23.90;1.40
2174;DHT22;1093;51.424;11.764;2023-07-29T16:08:51;24.00;1.40
2174;DHT22;1093;51.424;11.764;2023-07-29T16:11:21;23.90;1.40
2174;DHT22;1093;51.424;11.764;2023-07-29T16:13:48;23.90;1.40
2174;DHT22;1093;51.424;11.764;2023-07-29T16:16:15;23.90;1.40
2174;DHT22;1093;51.424;11.764;2023-07-29T16:18:42;24.00;1.40
2174;DHT22;1093;51.424;11.764;2023-07-29T16:21:10;24.00;1.40
2174;DHT22;1093;51.424;11.764;2023-07-29T16:23:37;24.00;1.40
2174;DHT22;1093;51.424;11.764;2023-07-29T16:26:05;24.00;1.40
2174;DHT22;1093;51.424;11.764;2023-07-29T16:28:32;24.10;1.40
2174;DHT22;1093;51.424;11.764;2023-07-29T16:31:02;24.20;1.40
2174;DHT22;1093;51.424;11.764;2023-07-29T16:33:29;24.20;1.40
2174;DHT22;1093;51.424;11.764;2023-07-29T16:35:56;24.20;1.40
2174;DHT22;1093;51.424;11.764;2023-07-29T16:38:24;24.20;1.40
2174;DHT22;1093;51.424;11.764;2023-07-29T16:40:51;24.10;1.40
2174;DHT22;1093;51.424;11.764;2023-07-29T16:43:18;24.10;1.40
2174;DHT22;1093;51.424;11.764;2023-07-29T16:45:45;24.00;1.40
2174;DHT22;1093;51.424;11.764;2023-07-29T16:48:12;23.90;1.40
2174;DHT22;1093;51.424;11.764;2023-07-29T16:50:39;23.80;1.40
2174;DHT22;1093;51.424;11.764;2023-07-29T16:53:06;23.70;1.40
2174;DHT22;1093;51.424;11.764;2023-07-29T16:55:34;23.70;1.40
2174;DHT22;1093;51.424;11.764;2023-07-29T16:58:01;23.60;1.40
2174;DHT22;1093;51.424;11.764;2023-07-29T17:00:28;23.50;1.40
2174;DHT22;1093;51.424;11.764;2023-07-29T17:02:56;23.40;1.40
2174;DHT22;1093;51.424;11.764;2023-07-29T17:05:23;23.40;1.40
2174;DHT22;1093;51.424;11.764;2023-07-29T17:07:50;23.30;1.40
2174;DHT22;1093;51.424;11.764;2023-07-29T17:13:34;23.20;1.40